Time;durP1;ratioP1;P1;durP2;ratioP2;P2;SDS_P1;SDS_P2;PMS_P1;PMS_P2;Temp;Humidity;BMP_temperature;BMP_pressure;BME280_temperature;BME280_humidity;BME280_pressure;Samples;Min_cycle;Max_cycle;Signal;HPM_P1;HPM_P2
2021/05/28 00:01:14;;;;;;;7.45;5.15;;;;;;;10.78;88.86;101684.50;4977323;28;20019;-48
2021/05/28 00:03:40;;;;;;;8.05;5.32;;;;;;;10.81;88.55;101687.56;4981087;28;20037;-48
2021/05/28 00:06:06;;;;;;;8.10;5.95;;;;;;;10.79;89.09;101699.56;4982307;28;20018;-48
2021/05/28 00:08:32;;;;;;;9.90;5.50;;;;;;;10.82;88.88;101696.41;4982291;28;20674;-48
2021/05/28 00:10:57;;;;;;;9.65;5.38;;;;;;;10.82;88.88;101697.22;4983032;28;20042;-47
2021/05/28 00:13:23;;;;;;;9.55;6.65;;;;;;;10.77;88.98;101701.59;4985730;28;20394;-49
2021/05/28 00:15:49;;;;;;;10.18;7.03;;;;;;;10.69;89.75;101708.09;4979640;28;20254;-47
2021/05/28 00:18:14;;;;;;;8.48;6.68;;;;;;;10.67;89.92;101701.34;4986170;28;20026;-48
2021/05/28 00:20:40;;;;;;;9.55;6.60;;;;;;;10.60;89.93;101709.47;4982123;28;20055;-47
2021/05/28 00:23:05;;;;;;;14.13;7.50;;;;;;;10.70;89.58;101708.94;4987379;28;20045;-47
2021/05/28 00:25:31;;;;;;;11.95;7.57;;;;;;;10.61;90.33;101700.38;4985822;28;20037;-48
2021/05/28 00:27:57;;;;;;;11.13;7.20;;;;;;;10.63;90.18;101710.88;4985007;28;20067;-48
2021/05/28 00:30:22;;;;;;;15.73;7.53;;;;;;;10.59;90.62;101707.81;4986443;28;20092;-48
2021/05/28 00:32:48;;;;;;;11.30;7.78;;;;;;;10.56;90.80;101703.72;4984419;28;20030;-49
2021/05/28 00:35:14;;;;;;;12.18;7.78;;;;;;;10.52;91.11;101709.75;4987238;28;20045;-49
2021/05/28 00:37:41;;;;;;;14.27;8.20;;;;;;;10.55;90.82;101712.81;4982947;28;20038;-47
2021/05/28 00:40:07;;;;;;;12.10;8.02;;;;;;;10.66;89.88;101718.47;4985551;28;20037;-48
2021/05/28 00:42:33;;;;;;;13.73;8.60;;;;;;;10.60;90.18;101720.19;4986329;28;20034;-48
2021/05/28 00:44:59;;;;;;;13.27;8.68;;;;;;;10.66;89.97;101721.16;4986721;28;20023;-48
2021/05/28 00:47:24;;;;;;;12.23;8.25;;;;;;;10.64;90.27;101724.06;4986384;28;20485;-48
2021/05/28 00:49:50;;;;;;;13.30;8.70;;;;;;;10.81;88.63;101727.75;4985072;28;20038;-48
2021/05/28 00:52:15;;;;;;;17.50;9.48;;;;;;;10.78;89.10;101724.72;4987054;28;20030;-49
2021/05/28 00:54:41;;;;;;;19.90;10.32;;;;;;;10.83;88.50;101731.03;4984276;28;20025;-48
2021/05/28 00:57:07;;;;;;;13.80;8.90;;;;;;;10.88;88.32;101727.66;5001944;28;20503;-47
2021/05/28 00:59:33;;;;;;;21.27;11.20;;;;;;;10.87;88.23;101736.75;5000123;28;20034;-48
2021/05/28 01:01:59;;;;;;;17.17;10.38;;;;;;;10.80;88.58;101731.50;4987375;28;20532;-48
2021/05/28 01:04:24;;;;;;;15.95;10.02;;;;;;;10.67;89.65;101739.69;4987248;28;20428;-47
2021/05/28 01:06:50;;;;;;;16.98;11.30;;;;;;;10.67;89.59;101741.53;4985960;28;20072;-47
2021/05/28 01:09:16;;;;;;;17.80;10.38;;;;;;;10.70;89.11;101738.41;4985588;28;20289;-48
2021/05/28 01:11:42;;;;;;;17.90;11.40;;;;;;;10.71;88.83;101742.72;4984847;28;20069;-48
2021/05/28 01:14:07;;;;;;;18.05;11.88;;;;;;;10.63;89.54;101743.84;4986428;28;20415;-48
2021/05/28 01:16:33;;;;;;;18.48;11.95;;;;;;;10.63;89.31;101740.38;4997721;28;20026;-48
2021/05/28 01:18:59;;;;;;;18.80;10.52;;;;;;;10.64;89.29;101752.72;4983727;28;20547;-48
2021/05/28 01:21:26;;;;;;;18.50;11.23;;;;;;;10.59;89.48;101758.72;4986282;28;20153;-49
2021/05/28 01:23:52;;;;;;;19.05;10.68;;;;;;;10.57;89.67;101747.41;4985113;28;20064;-48
2021/05/28 01:26:18;;;;;;;15.98;10.60;;;;;;;10.52;89.82;101753.44;4986249;28;20460;-47
2021/05/28 01:28:43;;;;;;;18.13;10.77;;;;;;;10.53;89.74;101760.44;4984593;28;20053;-47
2021/05/28 01:31:10;;;;;;;16.55;10.75;;;;;;;10.62;89.00;101752.13;4983872;28;20105;-47
2021/05/28 01:33:40;;;;;;;17.83;11.65;;;;;;;10.64;88.58;101764.25;4984710;28;20030;-48
2021/05/28 01:36:06;;;;;;;19.08;11.18;;;;;;;10.56;89.09;101767.22;4985119;28;20026;-48
2021/05/28 01:38:31;;;;;;;16.95;10.73;;;;;;;10.56;88.92;101769.91;4983341;28;20045;-49
2021/05/28 01:40:57;;;;;;;17.67;11.00;;;;;;;10.37;90.46;101774.41;4985229;28;20125;-49
2021/05/28 01:43:22;;;;;;;18.75;10.73;;;;;;;10.36;90.30;101772.78;4986167;28;20026;-49
2021/05/28 01:45:48;;;;;;;19.67;11.38;;;;;;;10.28;90.79;101776.59;4983329;28;20380;-47
2021/05/28 01:48:13;;;;;;;22.17;11.90;;;;;;;10.32;90.63;101779.63;4983300;28;20084;-48
2021/05/28 01:50:45;;;;;;;20.95;11.23;;;;;;;10.37;90.30;101781.63;4984128;28;20508;-47
2021/05/28 01:53:17;;;;;;;16.73;10.75;;;;;;;10.33;90.29;101788.50;4984955;28;20030;-47
2021/05/28 01:55:43;;;;;;;17.80;11.02;;;;;;;10.32;90.45;101784.16;4983790;28;20111;-49
2021/05/28 01:58:13;;;;;;;19.15;11.60;;;;;;;10.35;89.54;101789.91;4985786;28;20038;-48
2021/05/28 02:00:40;;;;;;;19.02;10.35;;;;;;;10.26;90.27;101784.03;4981717;28;20392;-49
2021/05/28 02:03:06;;;;;;;18.50;11.38;;;;;;;10.32;89.49;101787.66;4984752;28;20030;-47
2021/05/28 02:05:33;;;;;;;18.88;10.75;;;;;;;10.33;89.28;101791.97;4978705;28;20384;-47
2021/05/28 02:07:58;;;;;;;18.92;10.85;;;;;;;10.29;88.90;101788.94;4982357;28;20283;-48
2021/05/28 02:10:24;;;;;;;18.33;11.02;;;;;;;10.26;88.96;101780.53;4979550;28;20075;-48
2021/05/28 02:12:50;;;;;;;18.90;10.77;;;;;;;10.26;88.80;101793.91;4985805;28;20385;-47
2021/05/28 02:15:16;;;;;;;18.38;11.32;;;;;;;10.27;88.40;101782.97;4983293;28;20030;-48
2021/05/28 02:17:42;;;;;;;20.10;11.10;;;;;;;10.32;87.63;101784.16;4984699;28;20057;-47
2021/05/28 02:20:08;;;;;;;20.98;11.68;;;;;;;10.20;87.93;101786.72;4984164;28;20152;-48
2021/05/28 02:22:34;;;;;;;17.30;10.93;;;;;;;10.11;88.10;101790.72;4999487;28;20042;-48
2021/05/28 02:24:59;;;;;;;19.13;11.38;;;;;;;9.92;89.05;101798.69;4982864;28;20034;-48
2021/05/28 02:27:25;;;;;;;19.48;11.27;;;;;;;9.87;88.99;101793.16;4983703;28;20030;-47
2021/05/28 02:29:50;;;;;;;19.77;11.35;;;;;;;9.83;89.19;101800.00;4984412;28;20042;-48
2021/05/28 02:32:16;;;;;;;20.95;12.07;;;;;;;9.74;89.39;101797.81;4985422;28;20034;-48
2021/05/28 02:34:42;;;;;;;21.75;12.57;;;;;;;9.59;90.44;101803.47;4984654;28;20113;-47
2021/05/28 02:37:07;;;;;;;21.05;11.80;;;;;;;9.56;90.78;101811.94;4985078;28;20405;-47
2021/05/28 02:39:33;;;;;;;24.05;13.07;;;;;;;9.50;91.20;101812.75;4984901;28;20036;-47
2021/05/28 02:41:59;;;;;;;23.20;12.45;;;;;;;9.39;92.14;101823.13;4984814;28;20606;-47
2021/05/28 02:44:25;;;;;;;25.55;12.60;;;;;;;9.43;91.57;101820.03;4982907;28;20157;-47
2021/05/28 02:46:50;;;;;;;24.45;12.40;;;;;;;9.39;91.85;101819.63;4985242;28;20036;-48
2021/05/28 02:49:16;;;;;;;25.65;13.38;;;;;;;9.38;91.82;101818.00;4984316;28;20890;-49
2021/05/28 02:51:41;;;;;;;28.20;14.10;;;;;;;9.41;91.17;101822.91;4983651;28;20536;-47
2021/05/28 02:54:07;;;;;;;23.85;13.13;;;;;;;9.43;91.04;101823.50;4984431;28;20479;-48
2021/05/28 02:56:32;;;;;;;24.30;13.82;;;;;;;9.43;91.27;101818.16;4984222;28;20026;-48
2021/05/28 02:58:58;;;;;;;24.52;13.35;;;;;;;9.42;91.36;101821.88;4982192;28;20109;-47
2021/05/28 03:01:23;;;;;;;27.08;13.15;;;;;;;9.47;90.83;101830.06;4984996;28;20365;-47
2021/05/28 03:03:49;;;;;;;27.27;13.38;;;;;;;9.39;91.51;101827.66;4984715;28;20096;-47
2021/05/28 03:06:15;;;;;;;25.77;12.27;;;;;;;9.49;90.72;101835.19;4984087;28;20109;-47
2021/05/28 03:08:41;;;;;;;25.35;11.90;;;;;;;9.56;90.30;101826.13;4984093;28;20049;-48
2021/05/28 03:11:06;;;;;;;25.90;12.88;;;;;;;9.52;90.20;101838.28;4984449;28;20056;-47
2021/05/28 03:13:32;;;;;;;22.30;11.90;;;;;;;9.47;90.69;101837.28;4982993;28;20577;-47
2021/05/28 03:15:57;;;;;;;22.70;12.25;;;;;;;9.52;90.17;101840.97;4984378;28;20033;-49
2021/05/28 03:18:24;;;;;;;19.70;11.60;;;;;;;9.53;89.72;101847.13;4983814;28;20093;-47
2021/05/28 03:20:56;;;;;;;24.35;11.93;;;;;;;9.63;89.07;101845.63;4984076;28;20026;-47
2021/05/28 03:23:22;;;;;;;22.45;12.15;;;;;;;9.52;90.13;101845.50;4984556;28;20026;-47
2021/05/28 03:25:48;;;;;;;25.50;13.10;;;;;;;9.52;89.64;101842.81;4984312;28;20539;-47
2021/05/28 03:28:13;;;;;;;24.50;12.88;;;;;;;9.55;89.92;101850.41;4983162;28;20053;-47
2021/05/28 03:30:39;;;;;;;26.55;13.82;;;;;;;9.47;90.22;101848.78;4983545;28;20290;-47
2021/05/28 03:33:05;;;;;;;22.75;12.70;;;;;;;9.36;90.97;101847.63;4983793;28;20045;-48
2021/05/28 03:35:31;;;;;;;26.02;13.15;;;;;;;9.46;90.20;101857.03;4982822;28;20037;-48
2021/05/28 03:37:56;;;;;;;23.20;12.90;;;;;;;9.47;90.09;101854.16;4981949;28;20026;-48
2021/05/28 03:40:22;;;;;;;25.13;12.88;;;;;;;9.54;89.28;101856.81;4983768;28;20026;-47
2021/05/28 03:42:47;;;;;;;23.27;12.40;;;;;;;9.49;89.80;101868.13;4981607;28;20030;-47
2021/05/28 03:45:13;;;;;;;27.27;15.43;;;;;;;9.36;90.49;101858.34;4984196;28;20040;-47
2021/05/28 03:47:39;;;;;;;28.63;16.48;;;;;;;9.39;89.69;101863.25;4984563;28;20065;-47
2021/05/28 03:50:07;;;;;;;24.60;13.38;;;;;;;9.41;89.91;101859.53;4984258;28;20034;-48
2021/05/28 03:52:32;;;;;;;24.38;12.93;;;;;;;9.49;89.67;101867.31;4984307;28;20030;-49
2021/05/28 03:54:58;;;;;;;22.75;12.75;;;;;;;9.54;89.42;101875.53;4983889;28;20033;-47
2021/05/28 03:57:24;;;;;;;27.58;13.85;;;;;;;9.57;88.85;101867.91;4982931;28;20396;-48
2021/05/28 03:59:49;;;;;;;19.45;11.80;;;;;;;9.65;88.62;101880.19;4983365;28;20535;-47
2021/05/28 04:02:15;;;;;;;21.33;12.85;;;;;;;9.82;87.53;101881.31;4984143;28;20030;-48
2021/05/28 04:04:41;;;;;;;21.05;11.57;;;;;;;9.77;87.50;101880.34;4983617;28;20157;-48
2021/05/28 04:07:07;;;;;;;19.23;11.73;;;;;;;9.87;86.99;101881.50;4984347;28;20026;-47
2021/05/28 04:09:32;;;;;;;23.77;12.90;;;;;;;9.79;87.36;101889.78;4984463;28;20027;-48
2021/05/28 04:11:58;;;;;;;21.85;12.73;;;;;;;9.86;86.95;101885.22;4982023;28;20033;-49
2021/05/28 04:14:23;;;;;;;22.15;12.85;;;;;;;10.04;85.88;101875.63;4984451;28;20038;-48
2021/05/28 04:16:49;;;;;;;22.65;13.20;;;;;;;10.10;85.44;101885.50;4984100;28;21340;-48
2021/05/28 04:19:14;;;;;;;21.42;12.43;;;;;;;10.12;85.47;101881.56;4983757;28;20042;-48
2021/05/28 04:21:40;;;;;;;25.25;12.70;;;;;;;9.92;86.55;101888.91;4981762;28;20077;-47
2021/05/28 04:24:06;;;;;;;24.58;13.43;;;;;;;9.90;86.71;101889.13;4984073;28;20030;-48
2021/05/28 04:26:32;;;;;;;26.30;13.68;;;;;;;9.90;87.08;101894.47;4979339;28;20532;-47
2021/05/28 04:28:58;;;;;;;24.50;13.20;;;;;;;10.02;86.40;101894.59;4981274;28;20165;-47
2021/05/28 04:31:24;;;;;;;25.00;13.23;;;;;;;10.01;86.52;101895.63;4980890;28;20031;-48
2021/05/28 04:33:49;;;;;;;25.45;13.93;;;;;;;10.13;86.24;101895.75;4982782;28;20122;-47
2021/05/28 04:36:15;;;;;;;21.55;12.75;;;;;;;10.30;85.27;101896.91;4982037;28;20034;-47
2021/05/28 04:38:40;;;;;;;22.25;13.20;;;;;;;10.40;85.04;101905.25;4982203;28;20031;-48
2021/05/28 04:41:06;;;;;;;25.88;14.63;;;;;;;10.57;84.47;101903.66;4981020;28;20098;-47
2021/05/28 04:43:31;;;;;;;27.67;13.70;;;;;;;10.55;84.16;101905.75;4982198;28;20073;-49
2021/05/28 04:45:57;;;;;;;25.70;13.45;;;;;;;10.73;83.68;101910.31;4980240;28;20027;-48
2021/05/28 04:48:22;;;;;;;21.80;12.23;;;;;;;10.86;83.05;101909.38;4982845;28;20034;-48
2021/05/28 04:50:48;;;;;;;23.25;12.75;;;;;;;10.75;83.84;101910.94;4982983;28;20023;-47
2021/05/28 04:53:13;;;;;;;22.33;13.40;;;;;;;10.82;83.69;101911.69;4987232;28;20030;-48
2021/05/28 04:55:39;;;;;;;27.48;13.98;;;;;;;10.76;84.40;101912.56;4985483;28;20520;-48
2021/05/28 04:58:04;;;;;;;24.55;13.32;;;;;;;10.87;84.08;101913.72;4985973;28;20034;-48
2021/05/28 05:00:30;;;;;;;23.88;14.45;;;;;;;10.93;83.68;101909.31;4984051;28;20033;-50
2021/05/28 05:02:56;;;;;;;24.08;12.98;;;;;;;11.07;83.40;101908.97;4984360;28;20030;-48
2021/05/28 05:05:23;;;;;;;21.83;13.07;;;;;;;11.13;83.12;101916.13;4965704;28;20492;-48
2021/05/28 05:07:49;;;;;;;24.05;13.48;;;;;;;11.15;83.25;101916.72;4980986;28;20310;-50
2021/05/28 05:10:14;;;;;;;21.60;13.10;;;;;;;11.22;83.16;101926.56;4982190;28;20182;-47
2021/05/28 05:12:40;;;;;;;22.08;13.05;;;;;;;11.35;82.36;101926.41;4980696;28;20109;-48
2021/05/28 05:15:08;;;;;;;27.88;13.52;;;;;;;11.46;81.77;101929.13;4976982;28;20026;-49
2021/05/28 05:17:34;;;;;;;23.55;13.00;;;;;;;11.46;81.89;101931.00;4981524;28;20030;-48
2021/05/28 05:19:59;;;;;;;20.60;12.73;;;;;;;11.41;82.22;101933.56;4981238;28;20032;-49
2021/05/28 05:22:25;;;;;;;19.38;12.45;;;;;;;11.55;81.79;101932.34;4981291;28;20492;-49
2021/05/28 05:24:50;;;;;;;22.80;13.70;;;;;;;11.67;81.11;101935.94;4984347;28;20058;-49
2021/05/28 05:27:16;;;;;;;20.08;12.40;;;;;;;11.85;80.52;101940.47;4983491;28;20122;-48
2021/05/28 05:29:42;;;;;;;21.25;12.70;;;;;;;11.74;80.76;101943.88;4984918;28;20057;-47
2021/05/28 05:32:08;;;;;;;26.27;13.52;;;;;;;11.96;79.95;101942.38;4982397;28;20137;-48
2021/05/28 05:34:34;;;;;;;21.15;12.60;;;;;;;12.02;79.64;101943.31;4983417;28;20042;-49
2021/05/28 05:37:01;;;;;;;19.75;12.20;;;;;;;11.98;80.36;101952.88;4982789;28;20045;-48
2021/05/28 05:39:30;;;;;;;22.77;13.00;;;;;;;11.99;80.36;101949.97;4985309;28;20080;-48
2021/05/28 05:41:56;;;;;;;23.80;13.60;;;;;;;12.15;79.76;101951.19;4984224;28;20030;-48
2021/05/28 05:44:21;;;;;;;22.30;13.63;;;;;;;12.36;79.06;101953.34;4984845;28;20037;-50
2021/05/28 05:46:48;;;;;;;23.38;14.10;;;;;;;12.45;78.62;101958.41;4985128;28;20049;-47
2021/05/28 05:49:14;;;;;;;21.95;13.02;;;;;;;12.42;78.44;101954.31;4984791;28;20056;-48
2021/05/28 05:51:39;;;;;;;21.42;12.43;;;;;;;12.75;77.58;101951.09;4976072;28;20034;-50
2021/05/28 05:54:05;;;;;;;23.73;12.38;;;;;;;12.84;77.36;101957.75;4980847;28;20612;-48
2021/05/28 05:56:31;;;;;;;16.45;10.85;;;;;;;12.99;76.52;101949.22;4983875;28;20520;-50
2021/05/28 05:58:56;;;;;;;19.33;10.60;;;;;;;12.97;76.24;101956.69;4984808;28;20038;-49
2021/05/28 06:01:23;;;;;;;15.45;10.32;;;;;;;13.08;75.83;101952.34;4982050;28;20042;-48
2021/05/28 06:03:49;;;;;;;16.42;10.55;;;;;;;13.01;76.04;101958.69;4983007;28;20033;-49
2021/05/28 06:06:15;;;;;;;16.55;10.35;;;;;;;12.96;75.46;101963.94;4980861;28;20083;-48
2021/05/28 06:08:40;;;;;;;14.45;10.07;;;;;;;13.07;75.33;101964.16;4982703;28;20037;-48
2021/05/28 06:11:06;;;;;;;14.65;9.18;;;;;;;13.04;75.49;101961.94;4981957;28;20113;-49
2021/05/28 06:13:31;;;;;;;13.27;8.88;;;;;;;13.07;75.08;101967.66;4983260;28;20030;-48
2021/05/28 06:15:56;;;;;;;12.70;8.27;;;;;;;12.99;75.20;101965.34;4973148;28;20121;-48
2021/05/28 06:18:22;;;;;;;12.43;8.18;;;;;;;13.25;74.80;101958.69;4983872;28;20026;-48
2021/05/28 06:20:47;;;;;;;10.00;7.57;;;;;;;13.45;73.90;101963.66;4974379;28;20026;-47
2021/05/28 06:23:13;;;;;;;11.30;7.22;;;;;;;13.41;73.63;101966.03;4980411;28;20026;-48
2021/05/28 06:25:44;;;;;;;10.57;7.55;;;;;;;13.40;73.51;101964.38;4983245;28;20489;-48
2021/05/28 06:28:11;;;;;;;9.63;6.63;;;;;;;13.45;73.42;101969.06;4983385;28;20120;-48
2021/05/28 06:30:36;;;;;;;10.68;7.07;;;;;;;13.45;73.35;101975.25;4998973;28;20085;-48
2021/05/28 06:33:05;;;;;;;10.93;7.50;;;;;;;13.45;73.18;101977.13;4975028;28;20382;-48
2021/05/28 06:35:31;;;;;;;9.15;6.32;;;;;;;13.59;72.55;101982.03;4981048;28;20030;-48
2021/05/28 06:37:56;;;;;;;8.07;6.32;;;;;;;13.50;72.90;101982.66;4973651;28;20264;-48
2021/05/28 06:40:22;;;;;;;7.60;5.28;;;;;;;13.50;72.73;101994.22;4981607;28;20018;-50
2021/05/28 06:42:47;;;;;;;7.75;4.70;;;;;;;13.59;72.63;101989.28;4982000;28;20562;-48
2021/05/28 06:45:16;;;;;;;5.60;4.38;;;;;;;13.45;73.26;101996.78;4979487;28;20058;-48
2021/05/28 06:47:42;;;;;;;8.27;5.00;;;;;;;13.57;72.43;101994.91;4975684;28;20030;-48
2021/05/28 06:50:08;;;;;;;6.28;4.60;;;;;;;13.61;72.36;102001.44;4977961;28;20037;-47
2021/05/28 06:52:33;;;;;;;5.05;4.00;;;;;;;13.66;72.05;102014.22;4974778;28;20038;-48
2021/05/28 06:54:59;;;;;;;5.72;4.40;;;;;;;13.66;71.89;102003.47;4982098;28;20573;-47
2021/05/28 06:57:25;;;;;;;5.15;4.07;;;;;;;13.73;71.85;102003.31;4977344;28;20031;-48
2021/05/28 06:59:50;;;;;;;8.20;4.03;;;;;;;13.64;71.77;102008.22;4982027;28;20393;-48
2021/05/28 07:02:16;;;;;;;5.88;5.28;;;;;;;13.68;71.85;102011.28;4977584;28;20092;-48
2021/05/28 07:04:42;;;;;;;6.47;4.68;;;;;;;13.68;71.56;102012.13;4980126;28;20036;-48
2021/05/28 07:07:07;;;;;;;5.88;4.75;;;;;;;13.62;71.88;102013.03;4981391;28;20030;-48
2021/05/28 07:09:33;;;;;;;6.65;4.40;;;;;;;13.53;71.79;102015.28;4981068;28;20049;-48
2021/05/28 07:11:58;;;;;;;6.05;4.47;;;;;;;13.51;72.05;102021.97;4981963;28;20033;-48
2021/05/28 07:14:24;;;;;;;4.95;4.40;;;;;;;13.60;71.61;102020.53;4981135;28;20030;-47
2021/05/28 07:16:49;;;;;;;7.65;4.63;;;;;;;13.64;71.30;102023.56;4981104;28;20547;-48
2021/05/28 07:19:15;;;;;;;5.70;4.30;;;;;;;13.84;70.31;102024.03;4982186;28;20046;-47
2021/05/28 07:21:40;;;;;;;5.32;3.80;;;;;;;13.80;70.10;102020.13;4980257;28;20037;-47
2021/05/28 07:24:07;;;;;;;4.68;4.10;;;;;;;14.04;69.43;102026.28;4982996;28;20022;-48
2021/05/28 07:26:33;;;;;;;5.10;3.97;;;;;;;14.13;69.09;102025.66;4979375;28;20026;-46
2021/05/28 07:28:59;;;;;;;4.35;3.78;;;;;;;14.25;68.20;102027.50;4983164;28;20069;-45
2021/05/28 07:31:24;;;;;;;6.55;4.45;;;;;;;14.55;67.76;102022.69;4981798;28;20032;-45
2021/05/28 07:33:50;;;;;;;4.47;3.53;;;;;;;14.80;66.96;102030.38;4982311;28;20038;-45
2021/05/28 07:36:15;;;;;;;4.15;3.55;;;;;;;15.07;65.95;102031.34;4979944;28;20030;-45
2021/05/28 07:38:41;;;;;;;6.55;3.70;;;;;;;14.92;65.72;102030.31;4981089;28;20761;-46
2021/05/28 07:41:07;;;;;;;6.90;3.20;;;;;;;15.03;65.55;102037.50;4982763;28;20570;-45
2021/05/28 07:43:33;;;;;;;4.40;2.83;;;;;;;14.79;65.63;102040.38;4981079;28;20522;-45
2021/05/28 07:45:58;;;;;;;4.72;4.03;;;;;;;14.93;65.41;102042.75;4982174;28;20521;-45
2021/05/28 07:48:24;;;;;;;7.32;3.50;;;;;;;15.32;63.95;102035.50;4981045;28;20169;-46
2021/05/28 07:50:50;;;;;;;4.55;3.15;;;;;;;15.61;62.67;102047.00;4981641;28;20089;-47
2021/05/28 07:53:19;;;;;;;3.65;2.20;;;;;;;16.04;61.01;102040.78;4982481;28;20041;-46
2021/05/28 07:55:44;;;;;;;2.30;1.83;;;;;;;15.99;59.88;102046.97;4982085;28;20034;-46
2021/05/28 07:58:10;;;;;;;2.45;2.03;;;;;;;15.93;60.40;102039.84;4982977;28;20026;-46
2021/05/28 08:00:36;;;;;;;2.20;1.80;;;;;;;15.92;59.78;102040.91;4981128;28;20029;-46
2021/05/28 08:03:01;;;;;;;1.98;1.85;;;;;;;16.06;59.51;102044.06;4982899;28;20042;-46
2021/05/28 08:05:29;;;;;;;1.77;1.40;;;;;;;16.22;59.99;102045.88;4978088;28;20038;-45
2021/05/28 08:07:55;;;;;;;3.03;1.30;;;;;;;16.51;59.25;102051.81;4981546;28;20114;-47
2021/05/28 08:10:23;;;;;;;3.17;1.20;;;;;;;16.82;58.11;102041.31;4979749;28;20485;-46
2021/05/28 08:12:50;;;;;;;1.45;1.15;;;;;;;16.83;56.88;102049.16;4981277;28;20041;-45
2021/05/28 08:15:18;;;;;;;1.88;1.25;;;;;;;16.94;54.86;102051.97;4981016;28;20033;-46
2021/05/28 08:17:44;;;;;;;5.53;2.88;;;;;;;16.78;57.09;102051.84;4981555;28;20057;-46
2021/05/28 08:20:09;;;;;;;2.75;1.40;;;;;;;16.86;57.07;102053.25;4980886;28;20355;-46
2021/05/28 08:22:36;;;;;;;3.05;1.00;;;;;;;16.90;56.75;102057.09;4980484;28;20030;-46
2021/05/28 08:25:02;;;;;;;1.40;1.13;;;;;;;16.84;56.48;102060.81;4979351;28;20428;-46
2021/05/28 08:27:27;;;;;;;2.75;1.10;;;;;;;16.11;56.32;102057.63;4981112;28;20124;-46
2021/05/28 08:29:53;;;;;;;1.05;0.90;;;;;;;16.04;57.42;102061.59;4985632;28;20137;-46
2021/05/28 08:32:18;;;;;;;0.80;0.80;;;;;;;16.02;58.10;102065.38;4984455;28;20037;-45
2021/05/28 08:34:44;;;;;;;1.52;1.02;;;;;;;16.23;57.97;102057.50;4982516;28;20176;-46
2021/05/28 08:37:10;;;;;;;1.30;1.20;;;;;;;16.36;57.64;102069.81;4985372;28;20030;-45
2021/05/28 08:39:35;;;;;;;1.98;1.10;;;;;;;16.20;57.79;102068.81;4983565;28;20528;-46
2021/05/28 08:42:01;;;;;;;1.10;1.00;;;;;;;16.39;57.56;102067.41;4983893;28;20108;-46
2021/05/28 08:44:27;;;;;;;1.23;1.13;;;;;;;16.08;58.09;102070.84;4982763;28;20076;-46
2021/05/28 08:46:54;;;;;;;3.15;1.20;;;;;;;15.97;59.41;102072.59;4985084;28;20030;-46
2021/05/28 08:49:23;;;;;;;2.15;1.55;;;;;;;15.79;60.62;102071.00;4995636;28;20030;-46
2021/05/28 08:51:49;;;;;;;1.92;1.30;;;;;;;15.48;61.76;102069.78;4984592;28;20070;-46
2021/05/28 08:54:14;;;;;;;2.60;1.60;;;;;;;15.50;62.01;102073.03;4984756;28;20700;-46
2021/05/28 08:56:40;;;;;;;1.80;1.40;;;;;;;15.28;63.55;102075.69;4983823;28;20531;-46
2021/05/28 08:59:06;;;;;;;2.05;1.85;;;;;;;15.22;62.95;102083.94;4985219;28;20026;-46
2021/05/28 09:01:33;;;;;;;2.75;1.83;;;;;;;15.09;63.43;102082.41;4983496;28;20026;-46
2021/05/28 09:04:00;;;;;;;2.95;1.67;;;;;;;14.71;64.83;102093.88;4981654;28;20436;-46
2021/05/28 09:06:43;;;;;;;3.20;1.70;;;;;;;15.04;64.39;102082.31;4982540;28;20489;-46
2021/05/28 09:09:12;;;;;;;2.08;1.80;;;;;;;15.37;62.79;102086.88;4985107;28;20109;-46
2021/05/28 09:11:50;;;;;;;1.67;1.58;;;;;;;15.45;61.85;102080.25;4983781;28;20037;-46
2021/05/28 09:14:32;;;;;;;2.15;1.65;;;;;;;15.63;60.64;102086.22;4983856;28;20385;-46
2021/05/28 09:16:59;;;;;;;2.00;1.75;;;;;;;15.71;60.28;102079.56;4984105;28;20030;-47
2021/05/28 09:19:25;;;;;;;2.25;1.50;;;;;;;15.75;59.64;102078.00;4983128;28;20113;-46
2021/05/28 09:22:10;;;;;;;2.30;1.45;;;;;;;16.15;58.25;102074.16;4984471;28;20170;-46
2021/05/28 09:24:43;;;;;;;1.65;1.45;;;;;;;16.48;57.34;102082.09;4982966;28;20125;-45
2021/05/28 09:27:37;;;;;;;2.08;1.60;;;;;;;17.08;56.19;102070.22;4981470;28;20457;-46
2021/05/28 09:30:12;;;;;;;2.00;1.20;;;;;;;17.25;54.81;102074.69;4979870;28;20073;-46
2021/05/28 09:32:42;;;;;;;1.40;1.30;;;;;;;16.99;54.89;102076.38;4982139;28;20041;-46
2021/05/28 09:35:17;;;;;;;2.45;1.50;;;;;;;16.55;55.60;102082.72;4983502;28;20068;-47
2021/05/28 09:37:43;;;;;;;1.75;1.30;;;;;;;16.51;57.05;102086.19;4980984;28;20034;-46
2021/05/28 09:40:17;;;;;;;1.60;1.50;;;;;;;16.32;56.79;102074.88;4984220;28;20077;-46
2021/05/28 09:42:49;;;;;;;2.92;1.75;;;;;;;15.88;58.28;102077.63;4983316;28;20397;-46
2021/05/28 09:45:32;;;;;;;3.15;1.35;;;;;;;16.20;57.46;102076.94;4983261;28;20827;-46
2021/05/28 09:48:03;;;;;;;2.05;1.25;;;;;;;16.84;55.03;102082.47;4982407;28;20022;-46
2021/05/28 09:50:33;;;;;;;2.45;1.30;;;;;;;17.03;54.27;102083.72;4982524;28;20033;-46
2021/05/28 09:53:03;;;;;;;2.47;1.30;;;;;;;17.29;53.36;102086.63;4983447;28;20481;-46
2021/05/28 09:55:31;;;;;;;1.77;1.10;;;;;;;17.42;53.18;102086.19;4981814;28;20033;-46
2021/05/28 09:57:57;;;;;;;2.78;1.50;;;;;;;17.15;53.30;102087.06;4976912;28;20117;-47
2021/05/28 10:00:25;;;;;;;1.95;1.17;;;;;;;17.41;51.80;102090.75;4994632;28;20677;-46
2021/05/28 10:03:11;;;;;;;1.90;1.67;;;;;;;17.68;51.48;102087.97;4975699;28;20070;-47
2021/05/28 10:05:39;;;;;;;2.78;1.42;;;;;;;17.35;51.35;102094.50;4971853;28;20034;-45
2021/05/28 10:08:07;;;;;;;2.70;1.50;;;;;;;17.57;51.96;102082.72;4982382;28;20495;-46
2021/05/28 10:10:35;;;;;;;1.42;1.15;;;;;;;18.08;51.22;102081.09;4971837;28;20145;-46
2021/05/28 10:13:09;;;;;;;1.60;1.50;;;;;;;17.56;49.94;102103.59;4981632;28;20026;-46
2021/05/28 10:15:35;;;;;;;3.42;1.45;;;;;;;17.75;49.56;102077.69;4972233;28;20041;-46
2021/05/28 10:18:03;;;;;;;4.35;1.50;;;;;;;18.59;49.26;102073.09;4982110;28;20030;-47
2021/05/28 10:20:28;;;;;;;4.32;1.45;;;;;;;19.34;48.90;102074.19;4980794;28;20031;-47
2021/05/28 10:22:54;;;;;;;2.97;1.58;;;;;;;19.40;46.31;102080.44;4980997;28;20062;-46
2021/05/28 10:25:20;;;;;;;1.48;1.30;;;;;;;19.12;46.98;102074.50;4978810;28;20129;-47
2021/05/28 10:27:56;;;;;;;5.72;1.50;;;;;;;19.27;46.67;102071.75;4977704;28;20030;-46
2021/05/28 10:30:25;;;;;;;2.70;1.40;;;;;;;18.96;46.10;102076.41;4981943;28;20741;-46
2021/05/28 10:33:19;;;;;;;2.35;1.60;;;;;;;18.97;45.12;102075.31;4979010;28;20038;-47
2021/05/28 10:35:48;;;;;;;1.70;1.60;;;;;;;18.64;46.53;102081.25;4980919;28;20037;-46
2021/05/28 10:38:29;;;;;;;2.38;1.88;;;;;;;19.05;45.29;102084.00;4982510;28;20092;-47
2021/05/28 10:40:58;;;;;;;1.20;1.10;;;;;;;19.39;44.56;102078.78;4976841;28;20355;-47
2021/05/28 10:43:23;;;;;;;2.20;1.50;;;;;;;19.28;44.38;102078.00;4982468;28;20029;-47
2021/05/28 10:45:56;;;;;;;3.58;1.55;;;;;;;19.51;44.49;102071.97;4981469;28;20128;-46
2021/05/28 10:48:41;;;;;;;2.22;1.50;;;;;;;19.53;42.96;102080.66;4975609;28;20022;-46
2021/05/28 10:51:12;;;;;;;1.90;1.50;;;;;;;19.56;44.74;102076.59;4978797;28;20018;-47
2021/05/28 10:53:39;;;;;;;2.63;1.70;;;;;;;19.43;45.07;102079.91;4981507;28;20042;-47
2021/05/28 10:56:11;;;;;;;3.13;1.30;;;;;;;19.07;44.82;102088.09;4981865;28;20065;-47
2021/05/28 10:58:53;;;;;;;2.45;1.50;;;;;;;18.79;45.32;102086.72;4980902;28;20530;-47
2021/05/28 11:01:36;;;;;;;2.03;1.50;;;;;;;18.41;46.94;102080.66;4973503;28;20417;-46
2021/05/28 11:04:07;;;;;;;2.33;2.13;;;;;;;18.37;47.09;102085.00;4988918;28;20076;-46
2021/05/28 11:06:34;;;;;;;1.92;1.50;;;;;;;18.34;46.52;102084.72;4981281;28;20034;-46
2021/05/28 11:09:07;;;;;;;2.47;1.63;;;;;;;18.36;47.56;102085.25;4982201;28;20030;-46
2021/05/28 11:11:35;;;;;;;2.92;1.95;;;;;;;18.38;47.54;102086.63;4980497;28;20030;-46
2021/05/28 11:14:04;;;;;;;3.35;1.60;;;;;;;18.49;47.54;102087.47;4975652;28;20033;-46
2021/05/28 11:16:52;;;;;;;3.05;1.40;;;;;;;17.99;45.87;102098.97;4978276;28;20344;-46
2021/05/28 11:19:26;;;;;;;3.50;1.20;;;;;;;18.06;45.58;102094.13;4977023;28;20485;-47